createdAt,value
2023-03-23T15:58:49.910Z,9.90
2023-03-23T16:01:24.149Z,10.13
2023-03-23T16:04:06.953Z,9.00
2023-03-23T16:06:35.457Z,10.77
2023-03-23T16:09:04.668Z,12.98
2023-03-23T16:11:33.616Z,9.82
2023-03-23T16:14:01.477Z,12.73
2023-03-23T16:16:32.959Z,12.10
2023-03-23T16:19:00.780Z,11.77
2023-03-23T16:21:28.211Z,14.30
2023-03-23T16:23:56.993Z,13.63
2023-03-23T16:26:24.509Z,14.70
2023-03-23T16:28:57.390Z,12.85
2023-03-23T16:31:30.252Z,12.52
2023-03-23T16:33:57.953Z,12.18
2023-03-23T16:36:25.105Z,14.30
2023-03-23T16:38:53.651Z,16.38
2023-03-23T16:41:22.022Z,19.98
2023-03-23T16:43:49.356Z,18.90
2023-03-23T16:46:16.419Z,20.38
2023-03-23T16:48:44.286Z,23.88
2023-03-23T16:51:11.389Z,23.08
2023-03-23T16:53:38.742Z,18.10
2023-03-23T16:56:06.004Z,19.38
2023-03-23T16:58:33.324Z,19.65
2023-03-23T17:01:01.590Z,22.70
2023-03-23T17:03:29.724Z,18.75
2023-03-23T17:05:59.159Z,16.25
2023-03-23T17:08:26.572Z,21.67
2023-03-23T17:10:53.768Z,15.43
2023-03-23T17:13:21.241Z,15.32
2023-03-23T17:15:53.261Z,20.17
2023-03-23T17:18:21.190Z,14.20
2023-03-23T17:20:48.665Z,14.57
2023-03-23T17:23:17.182Z,12.70
2023-03-23T17:25:46.649Z,16.65
2023-03-23T17:28:14.028Z,13.60
2023-03-23T17:30:43.127Z,16.85
2023-03-23T17:33:12.097Z,18.83
2023-03-23T17:35:39.205Z,15.10
2023-03-23T17:38:06.710Z,18.42
2023-03-23T17:40:33.819Z,17.95
2023-03-23T17:43:01.395Z,15.77
2023-03-23T17:45:28.433Z,15.40
2023-03-23T17:47:56.178Z,16.33
2023-03-23T17:50:25.196Z,17.17
2023-03-23T17:52:52.589Z,16.65
2023-03-23T17:55:19.858Z,18.58
2023-03-23T17:57:47.214Z,16.60
2023-03-23T18:00:15.355Z,17.48
2023-03-23T18:02:44.010Z,19.35
2023-03-23T18:05:11.864Z,15.90
2023-03-23T18:07:39.677Z,20.75
2023-03-23T18:10:13.226Z,21.27
2023-03-23T18:12:41.772Z,18.02
2023-03-23T18:15:10.535Z,19.50
2023-03-23T18:17:38.624Z,19.60
2023-03-23T18:20:07.487Z,20.75
2023-03-23T18:22:34.904Z,28.35
2023-03-23T18:25:04.336Z,31.13
2023-03-23T18:27:32.404Z,35.80
2023-03-23T18:29:59.864Z,32.72
2023-03-23T18:32:27.791Z,27.63
2023-03-23T18:34:56.087Z,20.33
2023-03-23T18:37:23.480Z,18.52
2023-03-23T18:39:50.771Z,22.70
2023-03-23T18:42:18.088Z,22.15
2023-03-23T18:44:45.320Z,28.23
2023-03-23T18:47:12.624Z,27.73
2023-03-23T18:49:40.236Z,33.25
2023-03-23T18:52:07.854Z,31.15
2023-03-23T18:54:35.131Z,29.67
2023-03-23T18:57:02.820Z,26.83
2023-03-23T18:59:34.593Z,23.08
2023-03-23T19:02:02.851Z,29.48
2023-03-23T19:04:31.789Z,33.58
2023-03-23T19:07:01.479Z,30.73
2023-03-23T19:09:29.726Z,24.92
2023-03-23T19:11:57.160Z,19.10
2023-03-23T19:14:24.186Z,16.27
2023-03-23T19:16:52.561Z,17.45
2023-03-23T19:19:20.064Z,14.20
2023-03-23T19:21:47.945Z,18.13
2023-03-23T19:24:15.685Z,14.13
2023-03-23T19:26:44.489Z,13.02
2023-03-23T19:31:46.609Z,14.73
2023-03-23T19:34:14.663Z,14.45
2023-03-23T19:36:42.284Z,12.95
2023-03-23T19:39:15.212Z,13.25
2023-03-23T19:41:45.699Z,10.65
2023-03-23T19:44:13.132Z,12.82
2023-03-23T19:46:41.176Z,11.27
2023-03-23T19:49:08.714Z,11.07
2023-03-23T19:51:36.728Z,12.38
2023-03-23T19:54:06.381Z,13.35
2023-03-23T19:56:35.128Z,12.52
2023-03-23T19:59:02.465Z,12.52
2023-03-23T20:01:29.944Z,12.60
2023-03-23T20:03:59.681Z,12.30
2023-03-23T20:06:29.207Z,13.75
2023-03-23T20:08:59.641Z,14.05
2023-03-23T20:11:28.536Z,13.63
2023-03-23T20:13:56.262Z,15.02
2023-03-23T20:16:24.807Z,16.63
2023-03-23T20:18:53.454Z,15.65
2023-03-23T20:21:22.982Z,15.63
2023-03-23T20:23:54.143Z,15.52
2023-03-23T20:26:23.594Z,13.90
2023-03-23T20:28:51.287Z,13.57
2023-03-23T20:31:24.771Z,11.68
2023-03-23T20:34:00.773Z,16.85
2023-03-23T20:36:42.153Z,11.55
2023-03-23T20:39:16.177Z,12.85
2023-03-23T20:41:43.722Z,13.40
2023-03-23T20:44:16.071Z,12.23
2023-03-23T20:46:48.317Z,12.68
2023-03-23T20:49:15.953Z,13.95
2023-03-23T20:51:44.756Z,13.32
2023-03-23T20:54:15.248Z,14.88
2023-03-23T20:56:44.437Z,13.80
2023-03-23T20:59:12.992Z,17.05
2023-03-23T21:01:40.610Z,13.52
2023-03-23T21:04:15.146Z,13.32
2023-03-23T21:06:44.299Z,15.52
2023-03-23T21:09:12.872Z,14.13
2023-03-23T21:11:40.606Z,17.17
2023-03-23T21:14:08.790Z,19.02
2023-03-23T21:16:36.184Z,18.10
2023-03-23T21:19:05.364Z,16.98
2023-03-23T21:21:34.199Z,21.70
2023-03-23T21:24:01.410Z,23.80
2023-03-23T21:26:30.121Z,22.80
2023-03-23T21:29:00.486Z,14.25
2023-03-23T21:31:30.706Z,15.18
2023-03-23T21:33:59.091Z,16.30
2023-03-23T21:36:27.518Z,15.80
2023-03-23T21:38:55.615Z,15.55
2023-03-23T21:41:23.975Z,14.75
2023-03-23T21:43:51.597Z,14.85
2023-03-23T21:46:19.433Z,12.88
2023-03-23T21:48:51.651Z,13.88
2023-03-23T21:51:24.971Z,14.80
2023-03-23T21:53:54.418Z,13.20
2023-03-23T21:56:25.162Z,12.90
2023-03-23T21:58:52.379Z,13.88
2023-03-23T22:01:21.382Z,18.23
2023-03-23T22:03:49.148Z,20.88
2023-03-23T22:06:20.935Z,24.73
2023-03-23T22:08:48.241Z,21.63
2023-03-23T22:11:21.697Z,22.60
2023-03-23T22:13:51.953Z,23.92
2023-03-23T22:16:20.888Z,23.50
2023-03-23T22:18:49.375Z,21.80
2023-03-23T22:21:18.040Z,20.60
2023-03-23T22:23:46.124Z,18.48
2023-03-23T22:26:15.345Z,18.00
2023-03-23T22:28:43.413Z,18.65
2023-03-23T22:31:18.610Z,20.75
2023-03-23T22:33:47.789Z,21.48
2023-03-23T22:36:16.633Z,23.08
2023-03-23T22:38:46.668Z,19.58
2023-03-23T22:41:23.149Z,16.15
2023-03-23T22:43:50.311Z,21.50
2023-03-23T22:46:18.227Z,15.55
2023-03-23T22:48:45.814Z,15.80
2023-03-23T22:51:15.472Z,14.15
2023-03-23T22:53:42.904Z,14.15
2023-03-23T22:56:11.179Z,13.50
2023-03-23T22:58:38.757Z,14.02
2023-03-23T23:01:09.434Z,13.93
2023-03-23T23:03:36.946Z,13.52
2023-03-23T23:06:04.582Z,12.30
2023-03-23T23:08:32.945Z,12.93
2023-03-23T23:11:02.836Z,12.15
2023-03-23T23:13:31.949Z,13.40
2023-03-23T23:16:02.055Z,13.48
2023-03-23T23:18:30.825Z,12.15
2023-03-23T23:21:00.611Z,11.23
2023-03-23T23:23:28.563Z,12.13
2023-03-23T23:25:57.232Z,11.43
2023-03-23T23:28:24.571Z,11.10
2023-03-23T23:30:52.254Z,13.00
2023-03-23T23:33:20.530Z,10.85
2023-03-23T23:35:48.771Z,9.55
2023-03-23T23:38:16.678Z,10.90
2023-03-23T23:40:46.031Z,10.05
2023-03-23T23:43:15.789Z,9.57
2023-03-23T23:45:43.808Z,14.18
2023-03-23T23:48:12.666Z,11.63
2023-03-23T23:50:40.078Z,12.02
2023-03-23T23:53:09.906Z,11.57
2023-03-23T23:55:39.937Z,12.20
2023-03-23T23:58:07.002Z,12.15
